sensor_id;sensor_type;location;lat;lon;timestamp;P1;durP1;ratioP1;P2;durP2;ratioP2
21741;SDS011;11033;47.490;11.116;2023-04-15T00:01:52;3.03;;;2.72;;
21741;SDS011;11033;47.490;11.116;2023-04-15T00:04:17;5.50;;;2.85;;
21741;SDS011;11033;47.490;11.116;2023-04-15T00:06:48;5.47;;;2.65;;
21741;SDS011;11033;47.490;11.116;2023-04-15T00:09:15;11.65;;;3.08;;
21741;SDS011;11033;47.490;11.116;2023-04-15T00:11:40;5.70;;;2.93;;
21741;SDS011;11033;47.490;11.116;2023-04-15T00:14:06;6.22;;;2.67;;
21741;SDS011;11033;47.490;11.116;2023-04-15T00:16:31;4.93;;;2.70;;
21741;SDS011;11033;47.490;11.116;2023-04-15T00:18:56;3.28;;;2.35;;
21741;SDS011;11033;47.490;11.116;2023-04-15T00:21:22;4.15;;;2.58;;
21741;SDS011;11033;47.490;11.116;2023-04-15T00:23:47;6.10;;;3.17;;
21741;SDS011;11033;47.490;11.116;2023-04-15T00:26:16;3.63;;;2.65;;
21741;SDS011;11033;47.490;11.116;2023-04-15T00:28:43;4.82;;;2.45;;
21741;SDS011;11033;47.490;11.116;2023-04-15T00:31:09;3.58;;;2.10;;
21741;SDS011;11033;47.490;11.116;2023-04-15T00:33:34;5.05;;;2.60;;
21741;SDS011;11033;47.490;11.116;2023-04-15T00:36:01;8.30;;;3.42;;
21741;SDS011;11033;47.490;11.116;2023-04-15T00:38:27;5.55;;;2.92;;
21741;SDS011;11033;47.490;11.116;2023-04-15T00:40:53;7.45;;;3.20;;
21741;SDS011;11033;47.490;11.116;2023-04-15T00:43:19;6.72;;;3.20;;
21741;SDS011;11033;47.490;11.116;2023-04-15T00:45:44;5.95;;;2.65;;
21741;SDS011;11033;47.490;11.116;2023-04-15T00:48:11;4.68;;;2.42;;
21741;SDS011;11033;47.490;11.116;2023-04-15T00:50:36;3.63;;;3.00;;
21741;SDS011;11033;47.490;11.116;2023-04-15T00:53:02;8.05;;;2.88;;
21741;SDS011;11033;47.490;11.116;2023-04-15T00:55:27;6.55;;;2.83;;
21741;SDS011;11033;47.490;11.116;2023-04-15T00:57:52;3.72;;;2.20;;
21741;SDS011;11033;47.490;11.116;2023-04-15T01:00:19;5.35;;;2.60;;
21741;SDS011;11033;47.490;11.116;2023-04-15T01:02:44;7.00;;;2.78;;
21741;SDS011;11033;47.490;11.116;2023-04-15T01:05:10;6.60;;;2.28;;
21741;SDS011;11033;47.490;11.116;2023-04-15T01:07:35;5.28;;;2.72;;
21741;SDS011;11033;47.490;11.116;2023-04-15T01:10:02;6.72;;;2.47;;
21741;SDS011;11033;47.490;11.116;2023-04-15T01:12:28;6.57;;;3.00;;
21741;SDS011;11033;47.490;11.116;2023-04-15T01:14:55;7.03;;;2.38;;
21741;SDS011;11033;47.490;11.116;2023-04-15T01:17:21;8.15;;;2.90;;
21741;SDS011;11033;47.490;11.116;2023-04-15T01:19:47;3.53;;;2.10;;
21741;SDS011;11033;47.490;11.116;2023-04-15T01:22:12;8.50;;;2.58;;
21741;SDS011;11033;47.490;11.116;2023-04-15T01:24:38;5.70;;;2.70;;
21741;SDS011;11033;47.490;11.116;2023-04-15T01:27:04;4.10;;;2.63;;
21741;SDS011;11033;47.490;11.116;2023-04-15T01:29:30;4.25;;;2.38;;
21741;SDS011;11033;47.490;11.116;2023-04-15T01:31:57;4.60;;;2.53;;
21741;SDS011;11033;47.490;11.116;2023-04-15T01:34:22;5.38;;;3.00;;
21741;SDS011;11033;47.490;11.116;2023-04-15T01:36:47;5.22;;;3.05;;
21741;SDS011;11033;47.490;11.116;2023-04-15T01:39:13;3.85;;;2.58;;
21741;SDS011;11033;47.490;11.116;2023-04-15T01:41:39;5.68;;;2.40;;
21741;SDS011;11033;47.490;11.116;2023-04-15T01:44:06;7.43;;;2.78;;
21741;SDS011;11033;47.490;11.116;2023-04-15T01:46:32;3.70;;;3.13;;
21741;SDS011;11033;47.490;11.116;2023-04-15T01:48:57;5.32;;;2.13;;
21741;SDS011;11033;47.490;11.116;2023-04-15T01:51:22;2.27;;;2.00;;
21741;SDS011;11033;47.490;11.116;2023-04-15T01:53:47;5.18;;;2.30;;
21741;SDS011;11033;47.490;11.116;2023-04-15T01:56:13;5.17;;;2.23;;
21741;SDS011;11033;47.490;11.116;2023-04-15T01:58:38;4.83;;;2.50;;
21741;SDS011;11033;47.490;11.116;2023-04-15T02:01:04;4.97;;;2.83;;
21741;SDS011;11033;47.490;11.116;2023-04-15T02:03:29;5.75;;;2.83;;
21741;SDS011;11033;47.490;11.116;2023-04-15T02:05:55;5.63;;;2.60;;
21741;SDS011;11033;47.490;11.116;2023-04-15T02:08:20;8.15;;;2.55;;
21741;SDS011;11033;47.490;11.116;2023-04-15T02:10:46;6.43;;;3.05;;
21741;SDS011;11033;47.490;11.116;2023-04-15T02:13:12;5.45;;;2.97;;
21741;SDS011;11033;47.490;11.116;2023-04-15T02:15:37;5.18;;;3.05;;
21741;SDS011;11033;47.490;11.116;2023-04-15T02:18:03;5.95;;;2.40;;
21741;SDS011;11033;47.490;11.116;2023-04-15T02:20:29;2.70;;;2.33;;
21741;SDS011;11033;47.490;11.116;2023-04-15T02:22:57;5.18;;;3.33;;
21741;SDS011;11033;47.490;11.116;2023-04-15T02:25:22;7.65;;;3.10;;
21741;SDS011;11033;47.490;11.116;2023-04-15T02:27:47;3.28;;;2.40;;
21741;SDS011;11033;47.490;11.116;2023-04-15T02:30:13;6.65;;;2.80;;
21741;SDS011;11033;47.490;11.116;2023-04-15T02:32:39;9.32;;;2.83;;
21741;SDS011;11033;47.490;11.116;2023-04-15T02:35:05;5.25;;;2.63;;
21741;SDS011;11033;47.490;11.116;2023-04-15T02:37:31;5.70;;;3.42;;
21741;SDS011;11033;47.490;11.116;2023-04-15T02:40:00;7.65;;;3.05;;
21741;SDS011;11033;47.490;11.116;2023-04-15T02:42:26;6.35;;;2.40;;
21741;SDS011;11033;47.490;11.116;2023-04-15T02:44:52;9.20;;;2.85;;
21741;SDS011;11033;47.490;11.116;2023-04-15T02:47:18;9.35;;;3.28;;
21741;SDS011;11033;47.490;11.116;2023-04-15T02:49:44;4.95;;;2.88;;
21741;SDS011;11033;47.490;11.116;2023-04-15T02:52:09;4.97;;;3.13;;
21741;SDS011;11033;47.490;11.116;2023-04-15T02:54:35;3.90;;;2.78;;
21741;SDS011;11033;47.490;11.116;2023-04-15T02:57:00;8.85;;;3.90;;
21741;SDS011;11033;47.490;11.116;2023-04-15T02:59:26;7.45;;;3.30;;
21741;SDS011;11033;47.490;11.116;2023-04-15T03:01:51;5.15;;;3.35;;
21741;SDS011;11033;47.490;11.116;2023-04-15T03:04:16;3.88;;;2.90;;
21741;SDS011;11033;47.490;11.116;2023-04-15T03:06:42;8.88;;;3.22;;
21741;SDS011;11033;47.490;11.116;2023-04-15T03:09:07;3.77;;;2.87;;
21741;SDS011;11033;47.490;11.116;2023-04-15T03:11:32;7.88;;;2.55;;
21741;SDS011;11033;47.490;11.116;2023-04-15T03:13:59;17.15;;;3.40;;
21741;SDS011;11033;47.490;11.116;2023-04-15T03:16:24;5.30;;;1.83;;
21741;SDS011;11033;47.490;11.116;2023-04-15T03:18:49;4.67;;;2.37;;
21741;SDS011;11033;47.490;11.116;2023-04-15T03:21:15;3.47;;;2.50;;
21741;SDS011;11033;47.490;11.116;2023-04-15T03:23:40;4.65;;;2.15;;
21741;SDS011;11033;47.490;11.116;2023-04-15T03:26:06;7.63;;;3.40;;
21741;SDS011;11033;47.490;11.116;2023-04-15T03:28:31;8.00;;;3.33;;
21741;SDS011;11033;47.490;11.116;2023-04-15T03:30:56;5.43;;;3.00;;
21741;SDS011;11033;47.490;11.116;2023-04-15T03:33:22;5.80;;;2.95;;
21741;SDS011;11033;47.490;11.116;2023-04-15T03:35:49;5.68;;;2.95;;
21741;SDS011;11033;47.490;11.116;2023-04-15T03:38:15;4.13;;;3.00;;
21741;SDS011;11033;47.490;11.116;2023-04-15T03:40:40;7.35;;;2.97;;
21741;SDS011;11033;47.490;11.116;2023-04-15T03:43:06;7.80;;;4.13;;
21741;SDS011;11033;47.490;11.116;2023-04-15T03:45:31;7.30;;;3.20;;
21741;SDS011;11033;47.490;11.116;2023-04-15T03:47:57;5.18;;;3.17;;
21741;SDS011;11033;47.490;11.116;2023-04-15T03:50:22;4.60;;;2.53;;
21741;SDS011;11033;47.490;11.116;2023-04-15T03:52:47;9.90;;;3.08;;
21741;SDS011;11033;47.490;11.116;2023-04-15T03:55:12;8.23;;;2.90;;
21741;SDS011;11033;47.490;11.116;2023-04-15T03:57:39;5.40;;;3.00;;
21741;SDS011;11033;47.490;11.116;2023-04-15T04:00:04;7.00;;;3.22;;
21741;SDS011;11033;47.490;11.116;2023-04-15T04:02:30;4.00;;;2.55;;
21741;SDS011;11033;47.490;11.116;2023-04-15T04:04:56;6.20;;;2.80;;
21741;SDS011;11033;47.490;11.116;2023-04-15T04:07:22;7.03;;;3.10;;
21741;SDS011;11033;47.490;11.116;2023-04-15T04:09:47;3.35;;;2.80;;
21741;SDS011;11033;47.490;11.116;2023-04-15T04:12:13;6.87;;;2.63;;
21741;SDS011;11033;47.490;11.116;2023-04-15T04:14:38;6.40;;;2.63;;
21741;SDS011;11033;47.490;11.116;2023-04-15T04:17:03;4.25;;;2.15;;
21741;SDS011;11033;47.490;11.116;2023-04-15T04:19:29;7.80;;;2.60;;
21741;SDS011;11033;47.490;11.116;2023-04-15T04:21:54;4.25;;;1.95;;
21741;SDS011;11033;47.490;11.116;2023-04-15T04:24:20;5.25;;;2.47;;
21741;SDS011;11033;47.490;11.116;2023-04-15T04:26:45;5.05;;;2.72;;
21741;SDS011;11033;47.490;11.116;2023-04-15T04:29:10;11.53;;;2.80;;
21741;SDS011;11033;47.490;11.116;2023-04-15T04:31:36;4.05;;;2.75;;
21741;SDS011;11033;47.490;11.116;2023-04-15T04:34:01;5.63;;;2.47;;
21741;SDS011;11033;47.490;11.116;2023-04-15T04:36:26;6.50;;;2.97;;
21741;SDS011;11033;47.490;11.116;2023-04-15T04:38:52;3.03;;;2.40;;
21741;SDS011;11033;47.490;11.116;2023-04-15T04:41:17;4.17;;;2.07;;
21741;SDS011;11033;47.490;11.116;2023-04-15T04:43:42;2.60;;;2.20;;
21741;SDS011;11033;47.490;11.116;2023-04-15T04:46:07;5.80;;;2.03;;
21741;SDS011;11033;47.490;11.116;2023-04-15T04:48:33;4.53;;;2.35;;
21741;SDS011;11033;47.490;11.116;2023-04-15T04:50:58;5.97;;;2.57;;
21741;SDS011;11033;47.490;11.116;2023-04-15T04:53:23;4.53;;;2.75;;
21741;SDS011;11033;47.490;11.116;2023-04-15T04:55:49;8.57;;;2.30;;
21741;SDS011;11033;47.490;11.116;2023-04-15T04:58:14;5.13;;;2.73;;
21741;SDS011;11033;47.490;11.116;2023-04-15T05:00:39;4.22;;;2.83;;
21741;SDS011;11033;47.490;11.116;2023-04-15T05:03:06;6.80;;;2.67;;
21741;SDS011;11033;47.490;11.116;2023-04-15T05:05:31;7.47;;;3.00;;
21741;SDS011;11033;47.490;11.116;2023-04-15T05:07:56;8.57;;;2.77;;
21741;SDS011;11033;47.490;11.116;2023-04-15T05:10:21;13.88;;;2.80;;
21741;SDS011;11033;47.490;11.116;2023-04-15T05:12:47;3.70;;;2.87;;
21741;SDS011;11033;47.490;11.116;2023-04-15T05:15:12;5.60;;;2.13;;
21741;SDS011;11033;47.490;11.116;2023-04-15T05:17:37;3.47;;;2.40;;
21741;SDS011;11033;47.490;11.116;2023-04-15T05:20:03;5.32;;;2.20;;
21741;SDS011;11033;47.490;11.116;2023-04-15T05:22:28;5.45;;;2.90;;
21741;SDS011;11033;47.490;11.116;2023-04-15T05:24:53;8.02;;;2.55;;
21741;SDS011;11033;47.490;11.116;2023-04-15T05:27:19;6.47;;;2.28;;
21741;SDS011;11033;47.490;11.116;2023-04-15T05:29:44;4.20;;;2.80;;
21741;SDS011;11033;47.490;11.116;2023-04-15T05:32:10;4.35;;;2.70;;
21741;SDS011;11033;47.490;11.116;2023-04-15T05:34:35;5.75;;;2.35;;
21741;SDS011;11033;47.490;11.116;2023-04-15T05:37:01;4.88;;;2.38;;
21741;SDS011;11033;47.490;11.116;2023-04-15T05:39:26;4.53;;;2.10;;
21741;SDS011;11033;47.490;11.116;2023-04-15T05:41:51;3.97;;;2.33;;
21741;SDS011;11033;47.490;11.116;2023-04-15T05:44:17;14.43;;;2.50;;
21741;SDS011;11033;47.490;11.116;2023-04-15T05:46:42;6.03;;;2.67;;
21741;SDS011;11033;47.490;11.116;2023-04-15T05:49:07;3.17;;;2.20;;
21741;SDS011;11033;47.490;11.116;2023-04-15T05:51:33;4.10;;;2.83;;
21741;SDS011;11033;47.490;11.116;2023-04-15T05:53:58;6.65;;;3.25;;
21741;SDS011;11033;47.490;11.116;2023-04-15T05:56:23;5.55;;;2.47;;
21741;SDS011;11033;47.490;11.116;2023-04-15T05:58:51;7.70;;;2.25;;
21741;SDS011;11033;47.490;11.116;2023-04-15T06:01:16;3.33;;;2.15;;
21741;SDS011;11033;47.490;11.116;2023-04-15T06:03:41;6.25;;;2.30;;
21741;SDS011;11033;47.490;11.116;2023-04-15T06:06:07;5.57;;;2.05;;
21741;SDS011;11033;47.490;11.116;2023-04-15T06:08:32;9.13;;;4.53;;
21741;SDS011;11033;47.490;11.116;2023-04-15T06:10:58;9.65;;;4.90;;
21741;SDS011;11033;47.490;11.116;2023-04-15T06:13:23;10.35;;;4.57;;
21741;SDS011;11033;47.490;11.116;2023-04-15T06:15:48;7.43;;;4.35;;
21741;SDS011;11033;47.490;11.116;2023-04-15T06:18:14;8.67;;;4.43;;
21741;SDS011;11033;47.490;11.116;2023-04-15T06:20:39;12.85;;;4.75;;
21741;SDS011;11033;47.490;11.116;2023-04-15T06:23:05;8.85;;;4.80;;
21741;SDS011;11033;47.490;11.116;2023-04-15T06:25:31;10.70;;;5.13;;
21741;SDS011;11033;47.490;11.116;2023-04-15T06:27:56;13.73;;;7.50;;
21741;SDS011;11033;47.490;11.116;2023-04-15T06:30:21;12.80;;;8.50;;
21741;SDS011;11033;47.490;11.116;2023-04-15T06:32:46;11.88;;;7.30;;
21741;SDS011;11033;47.490;11.116;2023-04-15T06:35:12;12.70;;;7.03;;
21741;SDS011;11033;47.490;11.116;2023-04-15T06:37:37;13.38;;;6.75;;
21741;SDS011;11033;47.490;11.116;2023-04-15T06:40:03;8.90;;;5.60;;
21741;SDS011;11033;47.490;11.116;2023-04-15T06:42:29;7.35;;;4.53;;
21741;SDS011;11033;47.490;11.116;2023-04-15T06:44:54;7.10;;;3.47;;
21741;SDS011;11033;47.490;11.116;2023-04-15T06:47:20;6.90;;;3.28;;
21741;SDS011;11033;47.490;11.116;2023-04-15T06:49:45;6.10;;;3.30;;
21741;SDS011;11033;47.490;11.116;2023-04-15T06:52:10;5.50;;;2.93;;
21741;SDS011;11033;47.490;11.116;2023-04-15T06:54:36;5.55;;;2.40;;
21741;SDS011;11033;47.490;11.116;2023-04-15T06:57:01;3.88;;;2.88;;
21741;SDS011;11033;47.490;11.116;2023-04-15T06:59:27;5.80;;;3.15;;
21741;SDS011;11033;47.490;11.116;2023-04-15T07:01:52;4.40;;;2.33;;
21741;SDS011;11033;47.490;11.116;2023-04-15T07:04:18;4.07;;;2.20;;
21741;SDS011;11033;47.490;11.116;2023-04-15T07:06:44;4.35;;;2.50;;
21741;SDS011;11033;47.490;11.116;2023-04-15T07:09:10;6.18;;;2.78;;
21741;SDS011;11033;47.490;11.116;2023-04-15T07:11:35;6.10;;;3.03;;
21741;SDS011;11033;47.490;11.116;2023-04-15T07:14:01;8.13;;;2.25;;
21741;SDS011;11033;47.490;11.116;2023-04-15T07:16:26;3.55;;;2.13;;
21741;SDS011;11033;47.490;11.116;2023-04-15T07:18:52;2.72;;;2.05;;
21741;SDS011;11033;47.490;11.116;2023-04-15T07:21:17;3.75;;;2.35;;
21741;SDS011;11033;47.490;11.116;2023-04-15T07:23:43;2.27;;;1.80;;
21741;SDS011;11033;47.490;11.116;2023-04-15T07:26:08;3.50;;;2.20;;
21741;SDS011;11033;47.490;11.116;2023-04-15T07:28:33;4.78;;;2.20;;
21741;SDS011;11033;47.490;11.116;2023-04-15T07:30:59;3.13;;;2.00;;
21741;SDS011;11033;47.490;11.116;2023-04-15T07:33:24;7.72;;;2.60;;
21741;SDS011;11033;47.490;11.116;2023-04-15T07:35:50;4.60;;;1.90;;
21741;SDS011;11033;47.490;11.116;2023-04-15T07:38:15;5.73;;;1.97;;
21741;SDS011;11033;47.490;11.116;2023-04-15T07:40:40;6.20;;;2.13;;
21741;SDS011;11033;47.490;11.116;2023-04-15T07:43:06;2.58;;;1.90;;
21741;SDS011;11033;47.490;11.116;2023-04-15T07:45:32;6.28;;;2.30;;
21741;SDS011;11033;47.490;11.116;2023-04-15T07:47:58;5.03;;;1.88;;
21741;SDS011;11033;47.490;11.116;2023-04-15T07:50:23;4.47;;;1.80;;
21741;SDS011;11033;47.490;11.116;2023-04-15T07:52:49;3.67;;;1.70;;
21741;SDS011;11033;47.490;11.116;2023-04-15T07:55:15;5.30;;;2.15;;
21741;SDS011;11033;47.490;11.116;2023-04-15T07:57:43;3.63;;;1.85;;
21741;SDS011;11033;47.490;11.116;2023-04-15T08:00:08;4.75;;;1.90;;
21741;SDS011;11033;47.490;11.116;2023-04-15T08:02:35;6.60;;;1.88;;
21741;SDS011;11033;47.490;11.116;2023-04-15T08:05:00;5.32;;;2.03;;
21741;SDS011;11033;47.490;11.116;2023-04-15T08:07:27;4.28;;;1.77;;
21741;SDS011;11033;47.490;11.116;2023-04-15T08:09:52;6.35;;;2.17;;
21741;SDS011;11033;47.490;11.116;2023-04-15T08:12:21;4.18;;;1.75;;
21741;SDS011;11033;47.490;11.116;2023-04-15T08:14:46;7.43;;;2.05;;
21741;SDS011;11033;47.490;11.116;2023-04-15T08:17:11;5.32;;;2.25;;
21741;SDS011;11033;47.490;11.116;2023-04-15T08:19:37;2.65;;;2.00;;
21741;SDS011;11033;47.490;11.116;2023-04-15T08:22:02;6.60;;;1.70;;
21741;SDS011;11033;47.490;11.116;2023-04-15T08:24:28;5.67;;;2.20;;
21741;SDS011;11033;47.490;11.116;2023-04-15T08:26:54;3.20;;;1.83;;
21741;SDS011;11033;47.490;11.116;2023-04-15T08:29:20;3.05;;;2.17;;
21741;SDS011;11033;47.490;11.116;2023-04-15T08:31:45;4.13;;;2.33;;
21741;SDS011;11033;47.490;11.116;2023-04-15T08:34:11;2.13;;;1.63;;
21741;SDS011;11033;47.490;11.116;2023-04-15T08:36:37;4.40;;;1.80;;
21741;SDS011;11033;47.490;11.116;2023-04-15T08:39:02;6.60;;;2.10;;
21741;SDS011;11033;47.490;11.116;2023-04-15T08:41:29;4.05;;;1.90;;
21741;SDS011;11033;47.490;11.116;2023-04-15T08:44:04;6.13;;;2.15;;
21741;SDS011;11033;47.490;11.116;2023-04-15T08:46:30;3.92;;;1.80;;
21741;SDS011;11033;47.490;11.116;2023-04-15T08:48:56;5.32;;;1.77;;
21741;SDS011;11033;47.490;11.116;2023-04-15T08:51:22;5.13;;;2.33;;
21741;SDS011;11033;47.490;11.116;2023-04-15T08:53:48;2.75;;;2.40;;
21741;SDS011;11033;47.490;11.116;2023-04-15T08:56:14;3.08;;;1.70;;
21741;SDS011;11033;47.490;11.116;2023-04-15T08:58:41;2.92;;;2.08;;
21741;SDS011;11033;47.490;11.116;2023-04-15T09:01:07;5.93;;;2.10;;
21741;SDS011;11033;47.490;11.116;2023-04-15T09:03:34;7.18;;;1.85;;
21741;SDS011;11033;47.490;11.116;2023-04-15T09:05:59;5.57;;;2.28;;
21741;SDS011;11033;47.490;11.116;2023-04-15T09:08:25;5.18;;;2.00;;
21741;SDS011;11033;47.490;11.116;2023-04-15T09:10:50;6.35;;;2.75;;
21741;SDS011;11033;47.490;11.116;2023-04-15T09:13:17;3.78;;;2.13;;
21741;SDS011;11033;47.490;11.116;2023-04-15T09:15:42;4.85;;;2.33;;
21741;SDS011;11033;47.490;11.116;2023-04-15T09:18:08;5.25;;;2.08;;
21741;SDS011;11033;47.490;11.116;2023-04-15T09:20:40;4.00;;;1.98;;
21741;SDS011;11033;47.490;11.116;2023-04-15T09:23:13;4.32;;;2.22;;
21741;SDS011;11033;47.490;11.116;2023-04-15T09:25:40;7.38;;;2.38;;
21741;SDS011;11033;47.490;11.116;2023-04-15T09:28:07;4.93;;;2.33;;
21741;SDS011;11033;47.490;11.116;2023-04-15T09:30:32;3.35;;;1.65;;
21741;SDS011;11033;47.490;11.116;2023-04-15T09:32:59;3.58;;;1.88;;
21741;SDS011;11033;47.490;11.116;2023-04-15T09:35:26;4.90;;;2.20;;
21741;SDS011;11033;47.490;11.116;2023-04-15T09:37:52;6.03;;;2.30;;
21741;SDS011;11033;47.490;11.116;2023-04-15T09:40:39;3.30;;;2.22;;
21741;SDS011;11033;47.490;11.116;2023-04-15T09:43:06;6.38;;;1.92;;
21741;SDS011;11033;47.490;11.116;2023-04-15T09:45:32;4.97;;;2.08;;
21741;SDS011;11033;47.490;11.116;2023-04-15T09:48:13;3.33;;;1.90;;
21741;SDS011;11033;47.490;11.116;2023-04-15T09:50:44;4.88;;;1.70;;
21741;SDS011;11033;47.490;11.116;2023-04-15T09:53:10;3.30;;;1.55;;
21741;SDS011;11033;47.490;11.116;2023-04-15T09:55:39;8.73;;;2.22;;
21741;SDS011;11033;47.490;11.116;2023-04-15T09:58:09;5.55;;;2.38;;
21741;SDS011;11033;47.490;11.116;2023-04-15T10:00:42;4.40;;;1.70;;
21741;SDS011;11033;47.490;11.116;2023-04-15T10:03:07;5.35;;;1.85;;
21741;SDS011;11033;47.490;11.116;2023-04-15T10:05:33;8.18;;;1.95;;
21741;SDS011;11033;47.490;11.116;2023-04-15T10:07:59;2.67;;;1.95;;
21741;SDS011;11033;47.490;11.116;2023-04-15T10:10:25;4.07;;;2.00;;
21741;SDS011;11033;47.490;11.116;2023-04-15T10:12:50;6.40;;;1.98;;
21741;SDS011;11033;47.490;11.116;2023-04-15T10:15:16;3.35;;;1.60;;
21741;SDS011;11033;47.490;11.116;2023-04-15T10:17:43;6.00;;;2.15;;
21741;SDS011;11033;47.490;11.116;2023-04-15T10:20:09;5.70;;;2.35;;
21741;SDS011;11033;47.490;11.116;2023-04-15T10:22:36;2.72;;;2.40;;
21741;SDS011;11033;47.490;11.116;2023-04-15T10:25:02;3.45;;;2.10;;
21741;SDS011;11033;47.490;11.116;2023-04-15T10:27:29;3.28;;;1.70;;
21741;SDS011;11033;47.490;11.116;2023-04-15T10:29:55;5.00;;;2.08;;
21741;SDS011;11033;47.490;11.116;2023-04-15T10:32:21;4.32;;;2.08;;
21741;SDS011;11033;47.490;11.116;2023-04-15T10:34:49;3.10;;;2.00;;
21741;SDS011;11033;47.490;11.116;2023-04-15T10:37:25;3.45;;;1.92;;
21741;SDS011;11033;47.490;11.116;2023-04-15T10:39:58;5.80;;;1.90;;
21741;SDS011;11033;47.490;11.116;2023-04-15T10:42:24;7.35;;;1.90;;
21741;SDS011;11033;47.490;11.116;2023-04-15T10:44:58;3.92;;;2.05;;
21741;SDS011;11033;47.490;11.116;2023-04-15T10:47:24;4.75;;;2.10;;
21741;SDS011;11033;47.490;11.116;2023-04-15T10:49:51;2.15;;;1.50;;
21741;SDS011;11033;47.490;11.116;2023-04-15T10:52:24;2.85;;;1.90;;
21741;SDS011;11033;47.490;11.116;2023-04-15T10:57:50;6.35;;;1.98;;
21741;SDS011;11033;47.490;11.116;2023-04-15T11:00:18;2.72;;;1.48;;
21741;SDS011;11033;47.490;11.116;2023-04-15T11:02:51;6.75;;;1.73;;
21741;SDS011;11033;47.490;11.116;2023-04-15T11:08:14;3.15;;;1.75;;
21741;SDS011;11033;47.490;11.116;2023-04-15T11:15:34;3.38;;;2.22;;
21741;SDS011;11033;47.490;11.116;2023-04-15T11:20:34;3.28;;;1.98;;
21741;SDS011;11033;47.490;11.116;2023-04-15T11:23:00;6.15;;;2.63;;
21741;SDS011;11033;47.490;11.116;2023-04-15T11:25:26;5.57;;;2.08;;
21741;SDS011;11033;47.490;11.116;2023-04-15T11:27:53;5.13;;;2.38;;
21741;SDS011;11033;47.490;11.116;2023-04-15T11:30:21;2.35;;;1.70;;
21741;SDS011;11033;47.490;11.116;2023-04-15T11:32:49;4.07;;;1.80;;
21741;SDS011;11033;47.490;11.116;2023-04-15T11:35:16;4.18;;;1.60;;
21741;SDS011;11033;47.490;11.116;2023-04-15T11:37:43;3.97;;;1.95;;
21741;SDS011;11033;47.490;11.116;2023-04-15T11:40:10;6.05;;;2.35;;
21741;SDS011;11033;47.490;11.116;2023-04-15T11:42:35;3.47;;;1.83;;
21741;SDS011;11033;47.490;11.116;2023-04-15T11:45:07;2.08;;;1.83;;
21741;SDS011;11033;47.490;11.116;2023-04-15T11:47:37;4.30;;;1.85;;
21741;SDS011;11033;47.490;11.116;2023-04-15T11:50:13;7.63;;;2.55;;
21741;SDS011;11033;47.490;11.116;2023-04-15T11:53:00;5.03;;;2.30;;
21741;SDS011;11033;47.490;11.116;2023-04-15T11:55:27;4.43;;;2.28;;
21741;SDS011;11033;47.490;11.116;2023-04-15T12:00:44;4.70;;;2.45;;
21741;SDS011;11033;47.490;11.116;2023-04-15T12:03:12;2.45;;;2.05;;
21741;SDS011;11033;47.490;11.116;2023-04-15T12:06:04;7.25;;;2.45;;
21741;SDS011;11033;47.490;11.116;2023-04-15T12:11:20;4.15;;;2.35;;
21741;SDS011;11033;47.490;11.116;2023-04-15T12:13:52;4.70;;;2.30;;
21741;SDS011;11033;47.490;11.116;2023-04-15T12:16:21;4.93;;;2.20;;
21741;SDS011;11033;47.490;11.116;2023-04-15T12:18:50;24.08;;;14.90;;
21741;SDS011;11033;47.490;11.116;2023-04-15T12:21:26;6.90;;;4.10;;
21741;SDS011;11033;47.490;11.116;2023-04-15T12:24:00;9.88;;;3.05;;
21741;SDS011;11033;47.490;11.116;2023-04-15T12:26:27;5.90;;;2.65;;
21741;SDS011;11033;47.490;11.116;2023-04-15T12:28:54;3.75;;;1.98;;
21741;SDS011;11033;47.490;11.116;2023-04-15T12:31:24;8.95;;;2.50;;
21741;SDS011;11033;47.490;11.116;2023-04-15T12:33:49;7.20;;;3.03;;
21741;SDS011;11033;47.490;11.116;2023-04-15T12:36:14;7.40;;;2.37;;
21741;SDS011;11033;47.490;11.116;2023-04-15T12:38:40;3.25;;;2.00;;
21741;SDS011;11033;47.490;11.116;2023-04-15T12:41:05;3.78;;;1.80;;
21741;SDS011;11033;47.490;11.116;2023-04-15T12:43:31;2.73;;;1.70;;
21741;SDS011;11033;47.490;11.116;2023-04-15T12:45:56;3.33;;;1.77;;
21741;SDS011;11033;47.490;11.116;2023-04-15T12:48:21;3.03;;;2.25;;
21741;SDS011;11033;47.490;11.116;2023-04-15T12:50:47;4.22;;;2.25;;
21741;SDS011;11033;47.490;11.116;2023-04-15T12:53:12;5.37;;;2.10;;
21741;SDS011;11033;47.490;11.116;2023-04-15T12:55:37;6.70;;;3.72;;
21741;SDS011;11033;47.490;11.116;2023-04-15T12:58:03;4.47;;;2.53;;
21741;SDS011;11033;47.490;11.116;2023-04-15T13:00:28;5.13;;;2.65;;
21741;SDS011;11033;47.490;11.116;2023-04-15T13:02:53;6.72;;;2.63;;
21741;SDS011;11033;47.490;11.116;2023-04-15T13:05:19;4.53;;;2.50;;
21741;SDS011;11033;47.490;11.116;2023-04-15T13:07:44;4.25;;;2.20;;
21741;SDS011;11033;47.490;11.116;2023-04-15T13:10:10;4.82;;;2.33;;
21741;SDS011;11033;47.490;11.116;2023-04-15T13:12:35;4.18;;;2.90;;
21741;SDS011;11033;47.490;11.116;2023-04-15T13:15:04;4.63;;;2.67;;
21741;SDS011;11033;47.490;11.116;2023-04-15T13:17:29;5.30;;;2.30;;
21741;SDS011;11033;47.490;11.116;2023-04-15T13:19:55;3.55;;;2.20;;
21741;SDS011;11033;47.490;11.116;2023-04-15T13:22:21;3.85;;;2.42;;
21741;SDS011;11033;47.490;11.116;2023-04-15T13:24:46;4.80;;;2.80;;
21741;SDS011;11033;47.490;11.116;2023-04-15T13:27:11;6.07;;;2.63;;
21741;SDS011;11033;47.490;11.116;2023-04-15T13:29:37;7.32;;;3.30;;
21741;SDS011;11033;47.490;11.116;2023-04-15T13:32:02;4.53;;;2.53;;
21741;SDS011;11033;47.490;11.116;2023-04-15T13:34:28;4.47;;;2.40;;
21741;SDS011;11033;47.490;11.116;2023-04-15T13:36:53;9.17;;;2.80;;
21741;SDS011;11033;47.490;11.116;2023-04-15T13:39:18;5.90;;;3.00;;
21741;SDS011;11033;47.490;11.116;2023-04-15T13:41:44;7.50;;;2.97;;
21741;SDS011;11033;47.490;11.116;2023-04-15T13:44:10;7.13;;;2.90;;
21741;SDS011;11033;47.490;11.116;2023-04-15T13:46:36;8.57;;;4.97;;
21741;SDS011;11033;47.490;11.116;2023-04-15T13:49:03;6.40;;;3.88;;
21741;SDS011;11033;47.490;11.116;2023-04-15T13:51:28;20.42;;;9.43;;
21741;SDS011;11033;47.490;11.116;2023-04-15T13:53:54;10.73;;;5.57;;
21741;SDS011;11033;47.490;11.116;2023-04-15T13:56:19;8.38;;;4.47;;
21741;SDS011;11033;47.490;11.116;2023-04-15T13:58:45;10.50;;;5.10;;
21741;SDS011;11033;47.490;11.116;2023-04-15T14:01:10;10.25;;;6.15;;
21741;SDS011;11033;47.490;11.116;2023-04-15T14:03:36;6.03;;;3.87;;
21741;SDS011;11033;47.490;11.116;2023-04-15T14:06:01;7.47;;;3.67;;
21741;SDS011;11033;47.490;11.116;2023-04-15T14:08:27;6.00;;;4.10;;
21741;SDS011;11033;47.490;11.116;2023-04-15T14:10:52;14.27;;;7.63;;
21741;SDS011;11033;47.490;11.116;2023-04-15T14:13:17;10.93;;;5.57;;
21741;SDS011;11033;47.490;11.116;2023-04-15T14:15:43;11.25;;;4.97;;
21741;SDS011;11033;47.490;11.116;2023-04-15T14:18:08;7.95;;;3.88;;
21741;SDS011;11033;47.490;11.116;2023-04-15T14:20:34;6.20;;;3.30;;
21741;SDS011;11033;47.490;11.116;2023-04-15T14:22:59;7.47;;;3.15;;
21741;SDS011;11033;47.490;11.116;2023-04-15T14:25:25;6.80;;;4.82;;
21741;SDS011;11033;47.490;11.116;2023-04-15T14:27:51;7.00;;;4.95;;
21741;SDS011;11033;47.490;11.116;2023-04-15T14:30:16;7.47;;;5.20;;
21741;SDS011;11033;47.490;11.116;2023-04-15T14:32:41;7.93;;;4.93;;
21741;SDS011;11033;47.490;11.116;2023-04-15T14:35:06;8.53;;;5.03;;
21741;SDS011;11033;47.490;11.116;2023-04-15T14:37:32;9.52;;;4.75;;
21741;SDS011;11033;47.490;11.116;2023-04-15T14:39:57;7.63;;;4.90;;
21741;SDS011;11033;47.490;11.116;2023-04-15T14:42:22;6.03;;;4.00;;
21741;SDS011;11033;47.490;11.116;2023-04-15T14:44:48;9.68;;;5.25;;
21741;SDS011;11033;47.490;11.116;2023-04-15T14:47:13;7.82;;;5.40;;